Newbiggin-by-the-Sea, United Kingdom
Current Conditions -  °F | °C
As of 3:20 AM on Saturday 29 Nov 2014 (Local Time) from EGNT Reporting Station
Haze Haze  
Wind Chill: 46°   Ceiling: 400
Heat Index: 48°   Visibility: 1.2mi
Dew Point: 48°   Wind: 6mph
Humidity: 100%   Direction: 100°E
Pressure: 29.85"   Gusts: NA
Location:  55.19°N, 1.51°W
Report Text: EGNT 290320Z 10005KT 2000 BR OVC004 09/09 Q1011
Loading
Personal Weather Stations






























Interactive Weather Map New forecast layout! Learn more

10-Day Weather Forecast

Advertisements
Track Severe Weather on mobile